Time;durP1;ratioP1;P1;durP2;ratioP2;P2;SDS_P1;SDS_P2;PMS_P1;PMS_P2;Temp;Humidity;BMP_temperature;BMP_pressure;BME280_temperature;BME280_humidity;BME280_pressure;Samples;Min_cycle;Max_cycle;Signal;HPM_P1;HPM_P2
2023/08/02 00:01:06;;;;;;;3.42;2.40;;;29.00;53.60;;;;;;4992079;28;20070;-69
2023/08/02 00:03:33;;;;;;;2.75;2.55;;;29.10;53.60;;;;;;4991988;28;20272;-69
2023/08/02 00:06:07;;;;;;;2.55;2.35;;;28.90;53.10;;;;;;4992118;28;20081;-69
2023/08/02 00:08:34;;;;;;;2.55;2.35;;;29.00;53.60;;;;;;4991742;28;20467;-69
2023/08/02 00:11:02;;;;;;;2.90;2.60;;;29.00;53.60;;;;;;4992029;28;20379;-69
2023/08/02 00:13:28;;;;;;;2.80;2.20;;;29.00;53.70;;;;;;4991835;28;20038;-69
2023/08/02 00:15:54;;;;;;;2.20;2.00;;;28.90;53.10;;;;;;4991857;28;20076;-70
2023/08/02 00:18:20;;;;;;;2.67;2.40;;;29.10;53.70;;;;;;4991671;28;20045;-70
2023/08/02 00:20:48;;;;;;;2.47;2.10;;;29.00;53.70;;;;;;4991769;28;20046;-69
2023/08/02 00:23:21;;;;;;;2.63;2.42;;;29.00;53.70;;;;;;4991891;28;20069;-69
2023/08/02 00:25:47;;;;;;;2.40;2.20;;;29.00;53.70;;;;;;4991910;28;20073;-69
2023/08/02 00:28:14;;;;;;;3.00;2.67;;;29.00;53.70;;;;;;4991572;28;20031;-69
2023/08/02 00:30:45;;;;;;;4.40;2.17;;;29.00;53.70;;;;;;4992893;28;20080;-68
2023/08/02 00:33:11;;;;;;;2.78;2.58;;;29.00;53.70;;;;;;4994419;28;20061;-68
2023/08/02 00:35:49;;;;;;;2.22;2.03;;;28.90;53.10;;;;;;4994695;28;20034;-69
2023/08/02 00:38:15;;;;;;;2.38;2.00;;;28.80;53.10;;;;;;4994413;28;20038;-69
2023/08/02 00:40:41;;;;;;;2.58;2.28;;;28.90;53.10;;;;;;4993460;28;20054;-69
2023/08/02 00:43:07;;;;;;;3.28;2.60;;;28.90;53.10;;;;;;4995588;28;20085;-69
2023/08/02 00:45:35;;;;;;;2.25;2.05;;;28.80;53.20;;;;;;4994506;28;20117;-69
2023/08/02 00:48:01;;;;;;;2.22;2.00;;;29.00;53.60;;;;;;4994176;28;20034;-69
2023/08/02 00:50:30;;;;;;;4.43;2.38;;;28.80;53.10;;;;;;4994101;28;20039;-69
2023/08/02 00:52:56;;;;;;;2.53;2.20;;;28.90;53.20;;;;;;4995545;28;20061;-69
2023/08/02 00:55:23;;;;;;;2.95;2.03;;;29.00;53.80;;;;;;4994127;28;20501;-69
2023/08/02 00:57:49;;;;;;;2.00;1.90;;;28.70;53.40;;;;;;4994004;28;20478;-69
2023/08/02 01:00:16;;;;;;;3.28;2.97;;;28.80;53.50;;;;;;4994220;28;20061;-69
2023/08/02 01:02:42;;;;;;;4.97;2.42;;;28.80;53.50;;;;;;4995443;28;20049;-69
2023/08/02 01:05:08;;;;;;;4.68;1.88;;;28.80;53.50;;;;;;4995448;28;20038;-69
2023/08/02 01:07:44;;;;;;;2.50;2.30;;;28.70;53.50;;;;;;4995145;28;20110;-69
2023/08/02 01:10:16;;;;;;;2.08;1.95;;;28.70;53.50;;;;;;4995057;28;20046;-69
2023/08/02 01:12:45;;;;;;;1.73;1.63;;;28.80;53.50;;;;;;4994061;28;20034;-69
2023/08/02 01:15:14;;;;;;;3.03;2.40;;;28.90;53.60;;;;;;4994010;28;20046;-69
2023/08/02 01:17:43;;;;;;;2.42;2.22;;;28.80;53.50;;;;;;4994840;28;20038;-69
2023/08/02 01:20:09;;;;;;;2.33;2.13;;;28.80;53.50;;;;;;4994986;28;20026;-69
2023/08/02 01:22:35;;;;;;;6.82;1.85;;;28.70;53.60;;;;;;4994582;28;20512;-69
2023/08/02 01:25:03;;;;;;;3.33;2.42;;;28.80;53.60;;;;;;5010506;28;20085;-69
2023/08/02 01:27:54;;;;;;;3.72;2.00;;;28.90;53.50;;;;;;4993756;28;20034;-69
2023/08/02 01:30:25;;;;;;;5.18;2.15;;;28.80;53.50;;;;;;4994903;28;20065;-69
2023/08/02 01:32:53;;;;;;;2.33;2.10;;;28.80;53.60;;;;;;4993344;28;20062;-69
2023/08/02 01:35:20;;;;;;;3.70;2.60;;;28.80;53.60;;;;;;4994741;28;20030;-69
2023/08/02 01:37:48;;;;;;;2.80;2.03;;;28.70;53.60;;;;;;4994703;28;20117;-70
2023/08/02 01:40:16;;;;;;;2.25;1.75;;;28.80;53.50;;;;;;4993174;28;20046;-69
2023/08/02 01:42:42;;;;;;;4.72;2.00;;;28.70;53.60;;;;;;4994391;28;20036;-69
2023/08/02 01:45:09;;;;;;;2.50;2.08;;;28.70;53.50;;;;;;5008625;28;20490;-69
2023/08/02 01:47:35;;;;;;;2.45;2.00;;;28.70;53.50;;;;;;4994380;28;20505;-70
2023/08/02 01:50:01;;;;;;;2.45;2.10;;;28.70;52.60;;;;;;4994399;28;20178;-69
2023/08/02 01:52:27;;;;;;;2.20;2.10;;;28.70;53.70;;;;;;4994404;28;20049;-70
2023/08/02 01:54:53;;;;;;;3.45;2.28;;;28.60;53.80;;;;;;4994395;28;20042;-68
2023/08/02 01:57:28;;;;;;;3.60;2.17;;;28.60;53.80;;;;;;4994274;28;20040;-69
2023/08/02 02:00:08;;;;;;;3.45;1.83;;;28.60;53.80;;;;;;4992522;28;20422;-69
2023/08/02 02:02:39;;;;;;;2.00;1.80;;;28.70;53.90;;;;;;4994164;28;20026;-69
2023/08/02 02:05:05;;;;;;;2.15;1.95;;;28.60;53.90;;;;;;4993087;28;20117;-69
2023/08/02 02:07:32;;;;;;;2.17;2.08;;;28.80;53.90;;;;;;4994254;28;20117;-70
2023/08/02 02:09:58;;;;;;;2.30;2.00;;;28.60;53.90;;;;;;4991205;28;20142;-70
2023/08/02 02:12:24;;;;;;;1.95;1.85;;;28.60;53.90;;;;;;4971883;28;20053;-69
2023/08/02 02:14:50;;;;;;;4.50;2.28;;;28.60;53.90;;;;;;4972087;28;20051;-69
2023/08/02 02:17:17;;;;;;;2.92;2.50;;;28.70;54.00;;;;;;4955962;28;20085;-69
2023/08/02 02:19:43;;;;;;;1.67;1.58;;;28.70;54.00;;;;;;4932985;29;20436;-69
2023/08/02 02:22:09;;;;;;;3.17;2.33;;;28.60;54.00;;;;;;4933485;29;20551;-69
2023/08/02 02:24:35;;;;;;;3.00;2.20;;;28.60;54.00;;;;;;4933580;29;20647;-69
2023/08/02 02:27:02;;;;;;;3.90;2.00;;;28.60;54.00;;;;;;4917654;29;20047;-69
2023/08/02 02:29:28;;;;;;;2.55;2.35;;;28.80;54.00;;;;;;4917417;29;20054;-69
2023/08/02 02:31:54;;;;;;;3.25;2.45;;;28.70;54.00;;;;;;4933129;29;20492;-69
2023/08/02 02:34:20;;;;;;;2.75;2.55;;;28.60;54.00;;;;;;4933036;29;20047;-69
2023/08/02 02:36:46;;;;;;;3.53;3.10;;;28.60;54.00;;;;;;4933093;29;20590;-69
2023/08/02 02:39:12;;;;;;;3.63;2.50;;;28.60;54.00;;;;;;4933013;29;20083;-67
2023/08/02 02:41:38;;;;;;;6.00;3.08;;;28.60;54.00;;;;;;4948053;29;20094;-68
2023/08/02 02:44:05;;;;;;;6.57;2.13;;;28.50;53.90;;;;;;4967352;28;20078;-66
2023/08/02 02:46:31;;;;;;;3.45;2.22;;;28.50;54.00;;;;;;4971281;28;20419;-68
2023/08/02 02:48:58;;;;;;;3.25;2.55;;;28.50;54.10;;;;;;4971387;28;20113;-67
2023/08/02 02:51:33;;;;;;;2.65;2.00;;;28.50;54.10;;;;;;4999076;28;20038;-67
2023/08/02 02:53:59;;;;;;;2.30;2.10;;;28.60;54.10;;;;;;4992615;28;20026;-67
2023/08/02 02:56:25;;;;;;;2.10;1.90;;;28.50;54.20;;;;;;4993089;28;20034;-66
2023/08/02 02:58:51;;;;;;;1.83;1.73;;;28.50;54.20;;;;;;4992764;28;20085;-67
2023/08/02 03:01:17;;;;;;;2.78;2.47;;;28.60;54.20;;;;;;4993255;28;20057;-67
2023/08/02 03:03:44;;;;;;;2.28;2.08;;;28.70;54.20;;;;;;4993104;28;20113;-67
2023/08/02 03:06:10;;;;;;;2.95;2.45;;;28.60;54.20;;;;;;4993095;28;20456;-67
2023/08/02 03:08:36;;;;;;;4.45;2.15;;;28.70;54.30;;;;;;5007695;28;20445;-67
2023/08/02 03:11:02;;;;;;;2.67;2.47;;;28.70;54.30;;;;;;4992813;28;20120;-67
2023/08/02 03:13:28;;;;;;;4.25;2.22;;;28.50;54.30;;;;;;4992749;28;20421;-68
2023/08/02 03:15:54;;;;;;;3.08;2.10;;;28.70;54.40;;;;;;4992997;28;20102;-67
2023/08/02 03:18:20;;;;;;;2.00;1.83;;;28.60;54.40;;;;;;4992861;28;20029;-66
2023/08/02 03:20:47;;;;;;;2.70;2.50;;;28.60;54.40;;;;;;4992755;28;20545;-67
2023/08/02 03:23:13;;;;;;;2.70;2.00;;;28.40;54.40;;;;;;4992639;28;20117;-67
2023/08/02 03:25:39;;;;;;;2.30;2.08;;;28.50;54.40;;;;;;4992611;28;20065;-68
2023/08/02 03:28:05;;;;;;;2.00;1.80;;;28.70;54.40;;;;;;4990491;28;20122;-67
2023/08/02 03:30:31;;;;;;;2.63;2.08;;;28.60;54.40;;;;;;4992503;28;20065;-66
2023/08/02 03:32:57;;;;;;;4.75;2.95;;;28.50;54.40;;;;;;4992301;28;20054;-67
2023/08/02 03:35:24;;;;;;;2.70;2.50;;;28.40;54.40;;;;;;4992366;28;20485;-68
2023/08/02 03:37:50;;;;;;;3.13;2.60;;;28.50;54.40;;;;;;4992538;28;20648;-67
2023/08/02 03:40:16;;;;;;;3.55;2.67;;;28.50;54.40;;;;;;4992118;28;20490;-67
2023/08/02 03:42:42;;;;;;;3.55;2.50;;;28.50;54.30;;;;;;4992233;28;20030;-67
2023/08/02 03:45:08;;;;;;;3.10;2.67;;;28.60;54.20;;;;;;4990933;28;20452;-68
2023/08/02 03:47:34;;;;;;;2.33;2.20;;;28.50;54.00;;;;;;4992112;28;20042;-67
2023/08/02 03:50:01;;;;;;;3.25;2.38;;;28.40;54.40;;;;;;4992017;28;20390;-66
2023/08/02 03:52:27;;;;;;;3.75;2.30;;;28.60;54.50;;;;;;4991992;28;20081;-66
2023/08/02 03:54:53;;;;;;;2.40;1.92;;;28.50;54.60;;;;;;5006152;28;20066;-67
2023/08/02 03:57:19;;;;;;;4.63;3.40;;;28.40;54.60;;;;;;4992376;28;20092;-67
2023/08/02 03:59:45;;;;;;;2.03;1.83;;;28.40;54.50;;;;;;4991886;28;20362;-66
2023/08/02 04:02:12;;;;;;;2.78;2.50;;;28.60;54.10;;;;;;4992130;28;20038;-66
2023/08/02 04:04:39;;;;;;;4.70;2.65;;;28.40;54.10;;;;;;4991191;28;20689;-69
2023/08/02 04:07:05;;;;;;;2.78;2.58;;;28.60;53.90;;;;;;4991564;28;20398;-69
2023/08/02 04:09:32;;;;;;;2.35;2.15;;;28.40;53.70;;;;;;4991668;28;20034;-67
2023/08/02 04:11:58;;;;;;;3.33;3.03;;;28.40;53.50;;;;;;4992137;28;20054;-71
2023/08/02 04:14:24;;;;;;;3.58;2.88;;;28.60;56.00;;;;;;4991834;28;20042;-71
2023/08/02 04:16:50;;;;;;;6.88;3.67;;;28.90;58.10;;;;;;4990679;28;20102;-71
2023/08/02 04:19:16;;;;;;;7.60;3.92;;;29.20;59.30;;;;;;4991626;28;20045;-68
2023/08/02 04:21:42;;;;;;;7.28;3.75;;;29.30;58.70;;;;;;4991672;28;20088;-71
2023/08/02 04:24:08;;;;;;;6.13;3.45;;;29.30;56.10;;;;;;4991777;28;20034;-71
2023/08/02 04:26:34;;;;;;;5.50;3.63;;;29.00;55.60;;;;;;4991741;28;20034;-70
2023/08/02 04:29:00;;;;;;;5.38;3.25;;;28.90;55.00;;;;;;4991504;28;20034;-70
2023/08/02 04:31:27;;;;;;;5.50;3.50;;;28.80;55.00;;;;;;4991625;28;20110;-71
2023/08/02 04:33:55;;;;;;;3.55;3.22;;;28.80;55.10;;;;;;4991578;28;20072;-71
2023/08/02 04:36:21;;;;;;;4.22;3.08;;;28.90;55.10;;;;;;4991476;28;20066;-71
2023/08/02 04:38:47;;;;;;;4.00;2.75;;;28.90;55.10;;;;;;4991781;28;20072;-69
2023/08/02 04:41:16;;;;;;;2.78;2.55;;;28.90;55.20;;;;;;4991580;28;20042;-71
2023/08/02 04:43:42;;;;;;;3.33;2.67;;;28.70;55.50;;;;;;4991589;28;20039;-71
2023/08/02 04:46:09;;;;;;;2.85;2.58;;;28.80;55.70;;;;;;4991679;28;20069;-71
2023/08/02 04:48:35;;;;;;;4.75;2.97;;;28.80;55.80;;;;;;4991619;28;20031;-72
2023/08/02 04:51:09;;;;;;;2.45;2.30;;;28.80;55.90;;;;;;4991290;28;20038;-68
2023/08/02 04:53:36;;;;;;;3.80;2.88;;;28.80;55.90;;;;;;4990527;28;20394;-69
2023/08/02 04:56:02;;;;;;;3.03;2.80;;;28.90;55.60;;;;;;4991670;28;20030;-69
2023/08/02 04:58:28;;;;;;;3.22;2.92;;;28.80;55.20;;;;;;4990180;28;20046;-69
2023/08/02 05:00:54;;;;;;;4.55;3.53;;;28.70;55.10;;;;;;4991475;28;20042;-71
2023/08/02 05:03:21;;;;;;;3.40;3.10;;;28.70;54.70;;;;;;4991376;28;20027;-68
2023/08/02 05:05:47;;;;;;;4.35;3.15;;;28.70;54.50;;;;;;4991585;28;20031;-68
2023/08/02 05:08:17;;;;;;;3.78;3.03;;;28.70;54.60;;;;;;4991476;28;20092;-67
2023/08/02 05:10:43;;;;;;;3.47;3.17;;;28.70;54.50;;;;;;4991280;28;20109;-70
2023/08/02 05:13:09;;;;;;;4.25;3.30;;;28.60;54.20;;;;;;4991259;28;20125;-69
2023/08/02 05:15:36;;;;;;;5.88;3.90;;;28.50;54.60;;;;;;4991463;28;20022;-69
2023/08/02 05:18:03;;;;;;;5.15;3.50;;;28.50;54.40;;;;;;4994618;28;20121;-70
2023/08/02 05:20:32;;;;;;;4.75;3.20;;;28.70;54.50;;;;;;4994699;28;20401;-69
2023/08/02 05:22:59;;;;;;;4.43;3.38;;;28.70;54.40;;;;;;4993631;28;20433;-69
2023/08/02 05:25:34;;;;;;;5.70;3.47;;;28.50;55.00;;;;;;4994900;28;20113;-69
2023/08/02 05:28:01;;;;;;;4.38;3.95;;;28.60;55.50;;;;;;4994654;28;20058;-70
2023/08/02 05:30:28;;;;;;;4.32;3.67;;;28.70;55.40;;;;;;4993145;28;20502;-69
2023/08/02 05:32:55;;;;;;;4.80;3.53;;;28.60;55.30;;;;;;4994840;28;20058;-69
2023/08/02 05:35:23;;;;;;;13.77;4.57;;;28.60;55.10;;;;;;4994369;28;20038;-71
2023/08/02 05:37:49;;;;;;;6.10;4.40;;;28.70;54.90;;;;;;4994689;28;20113;-70
2023/08/02 05:40:15;;;;;;;3.65;3.25;;;28.70;54.70;;;;;;4994091;28;20034;-70
2023/08/02 05:42:41;;;;;;;5.32;3.42;;;28.80;55.10;;;;;;4994749;28;20061;-69
2023/08/02 05:45:09;;;;;;;5.60;3.75;;;28.70;55.40;;;;;;4994372;28;20088;-69
2023/08/02 05:47:36;;;;;;;8.45;5.32;;;28.80;55.20;;;;;;4993549;28;20049;-68
2023/08/02 05:50:03;;;;;;;11.38;5.97;;;28.70;55.40;;;;;;4994391;28;20157;-69
2023/08/02 05:52:29;;;;;;;6.82;5.78;;;28.80;55.50;;;;;;4993224;28;20038;-69
2023/08/02 05:54:55;;;;;;;6.90;5.78;;;28.80;55.50;;;;;;4994530;28;20042;-70
2023/08/02 05:57:21;;;;;;;9.63;7.07;;;28.80;54.40;;;;;;4994342;28;20045;-70
2023/08/02 05:59:49;;;;;;;4.70;3.47;;;28.80;55.00;;;;;;4992674;28;20057;-66
2023/08/02 06:02:15;;;;;;;3.60;3.30;;;28.90;54.40;;;;;;4994079;28;20045;-69
2023/08/02 06:04:43;;;;;;;4.20;3.40;;;28.80;54.70;;;;;;4994288;28;20041;-68
2023/08/02 06:07:10;;;;;;;3.75;3.15;;;29.00;58.40;;;;;;4994252;28;20023;-67
2023/08/02 06:09:36;;;;;;;5.88;3.15;;;29.80;57.40;;;;;;4994003;28;20049;-70
2023/08/02 06:12:02;;;;;;;4.03;3.63;;;30.30;54.70;;;;;;4993845;28;20901;-68
2023/08/02 06:14:28;;;;;;;6.63;3.72;;;30.50;56.50;;;;;;4993940;28;20137;-68
2023/08/02 06:16:55;;;;;;;3.53;3.22;;;30.40;54.60;;;;;;4994144;28;20088;-68
2023/08/02 06:19:21;;;;;;;6.13;3.53;;;30.10;53.10;;;;;;4993876;28;20074;-68
2023/08/02 06:21:47;;;;;;;3.30;3.00;;;29.90;52.50;;;;;;4993784;28;20514;-69
2023/08/02 06:24:13;;;;;;;4.07;2.88;;;29.80;52.60;;;;;;4993810;28;20034;-70
2023/08/02 06:26:40;;;;;;;4.88;4.10;;;29.90;52.80;;;;;;4993786;28;20477;-68
2023/08/02 06:29:08;;;;;;;3.83;2.95;;;29.80;53.10;;;;;;4990309;28;20049;-68
2023/08/02 06:31:34;;;;;;;3.13;2.63;;;29.60;53.10;;;;;;4998171;28;20065;-68
2023/08/02 06:34:00;;;;;;;7.32;2.90;;;29.70;53.50;;;;;;5013351;28;20087;-67
2023/08/02 06:36:26;;;;;;;5.60;3.13;;;29.60;53.40;;;;;;5019045;28;20034;-68
2023/08/02 06:38:52;;;;;;;4.38;3.42;;;29.50;53.70;;;;;;4993604;28;20118;-67
2023/08/02 06:41:18;;;;;;;4.88;3.58;;;29.60;53.90;;;;;;4993330;28;20105;-66
2023/08/02 06:43:44;;;;;;;3.08;2.72;;;29.60;54.80;;;;;;4993370;28;20038;-67
2023/08/02 06:46:11;;;;;;;6.45;3.10;;;29.50;55.20;;;;;;5012548;28;20052;-67
2023/08/02 06:48:36;;;;;;;4.05;3.22;;;29.60;55.30;;;;;;5013213;28;20061;-68
2023/08/02 06:51:03;;;;;;;6.38;4.18;;;29.60;55.30;;;;;;5012782;28;20063;-68
2023/08/02 06:53:29;;;;;;;6.90;3.63;;;29.70;56.70;;;;;;5012835;28;20036;-67
2023/08/02 06:55:55;;;;;;;8.35;4.40;;;29.90;56.70;;;;;;5043476;28;20052;-68
2023/08/02 06:58:21;;;;;;;6.63;4.22;;;29.90;62.50;;;;;;5013058;28;20121;-68
2023/08/02 07:00:47;;;;;;;7.63;4.55;;;29.90;57.70;;;;;;5012676;28;20052;-67
2023/08/02 07:03:13;;;;;;;4.13;3.40;;;30.00;58.80;;;;;;4993620;28;20118;-67
2023/08/02 07:05:40;;;;;;;5.35;3.10;;;30.10;59.00;;;;;;4992852;28;20524;-68
2023/08/02 07:08:06;;;;;;;4.00;3.55;;;30.10;55.80;;;;;;4993045;28;20034;-69
2023/08/02 07:10:32;;;;;;;10.90;6.85;;;30.00;55.60;;;;;;4991481;28;20079;-69
2023/08/02 07:12:58;;;;;;;4.82;3.00;;;30.20;55.10;;;;;;4991543;28;20105;-69
2023/08/02 07:15:24;;;;;;;8.65;5.05;;;30.20;54.60;;;;;;4992929;28;20030;-69
2023/08/02 07:17:50;;;;;;;4.25;3.45;;;30.40;55.90;;;;;;4992946;28;20084;-69
2023/08/02 07:20:18;;;;;;;4.03;3.38;;;30.30;55.40;;;;;;4992695;28;20121;-69
2023/08/02 07:22:44;;;;;;;7.32;3.80;;;30.30;55.40;;;;;;4992677;28;20034;-69
2023/08/02 07:25:11;;;;;;;5.35;4.15;;;30.30;55.20;;;;;;4991228;28;20080;-70
2023/08/02 07:27:37;;;;;;;4.55;3.35;;;30.50;58.10;;;;;;4992724;28;20433;-67
2023/08/02 07:30:04;;;;;;;8.68;3.78;;;30.50;54.90;;;;;;4992427;28;20041;-68
2023/08/02 07:32:33;;;;;;;5.18;4.20;;;30.50;54.60;;;;;;4992376;28;20606;-68
2023/08/02 07:34:59;;;;;;;13.27;4.00;;;30.70;56.30;;;;;;4992243;28;20123;-67
2023/08/02 07:37:25;;;;;;;8.68;4.50;;;30.70;54.50;;;;;;4989435;28;20038;-66
2023/08/02 07:39:51;;;;;;;6.97;3.78;;;30.50;54.10;;;;;;4983731;28;20551;-65
2023/08/02 07:42:17;;;;;;;4.40;3.70;;;30.50;54.40;;;;;;4992102;28;20042;-65
2023/08/02 07:44:58;;;;;;;5.72;4.13;;;30.50;61.60;;;;;;4992063;28;20126;-65
2023/08/02 07:47:24;;;;;;;5.32;4.13;;;30.60;56.50;;;;;;4992136;28;20065;-66
2023/08/02 07:49:51;;;;;;;6.57;4.00;;;30.80;58.90;;;;;;4991666;28;20038;-66
2023/08/02 07:52:17;;;;;;;4.07;3.30;;;30.70;59.10;;;;;;4992128;28;20045;-66
2023/08/02 07:54:43;;;;;;;5.57;4.05;;;30.70;55.40;;;;;;4992365;28;20034;-66
2023/08/02 07:57:09;;;;;;;5.57;3.88;;;30.80;59.30;;;;;;4991903;28;20045;-65
2023/08/02 07:59:35;;;;;;;4.43;4.03;;;30.80;61.40;;;;;;5022451;28;20133;-65
2023/08/02 08:02:01;;;;;;;5.97;3.72;;;30.90;58.50;;;;;;4991825;28;20026;-66
2023/08/02 08:04:27;;;;;;;5.55;3.80;;;30.80;55.60;;;;;;5005880;28;20561;-66
2023/08/02 08:06:54;;;;;;;3.67;3.30;;;30.80;57.00;;;;;;5005678;28;20486;-65
2023/08/02 08:09:23;;;;;;;6.75;3.83;;;31.00;55.60;;;;;;5005982;28;20046;-65
2023/08/02 08:11:50;;;;;;;5.97;3.33;;;30.80;54.20;;;;;;4991609;28;20529;-65
2023/08/02 08:14:16;;;;;;;3.75;3.45;;;30.50;53.40;;;;;;5005929;28;20050;-64
2023/08/02 08:16:42;;;;;;;3.97;3.67;;;30.50;53.40;;;;;;4991509;28;20118;-66
2023/08/02 08:19:08;;;;;;;3.95;3.42;;;30.60;54.90;;;;;;4991823;28;20050;-65
2023/08/02 08:21:34;;;;;;;3.95;3.55;;;30.60;53.80;;;;;;4991668;28;20102;-65
2023/08/02 08:24:00;;;;;;;4.50;3.53;;;30.50;53.60;;;;;;4991668;28;20069;-65
2023/08/02 08:26:26;;;;;;;5.82;3.45;;;30.70;53.30;;;;;;5006137;28;20034;-65
2023/08/02 08:28:52;;;;;;;3.22;2.92;;;30.50;53.20;;;;;;4991969;28;20038;-65
2023/08/02 08:31:19;;;;;;;8.77;4.35;;;30.50;53.80;;;;;;5005840;28;20052;-68
2023/08/02 08:33:45;;;;;;;4.78;3.28;;;30.50;58.40;;;;;;4991855;28;20133;-69
2023/08/02 08:36:14;;;;;;;3.95;3.33;;;30.60;57.70;;;;;;5001324;28;20042;-69
2023/08/02 08:38:40;;;;;;;5.07;4.18;;;30.40;56.00;;;;;;5011172;28;20138;-66
2023/08/02 08:41:07;;;;;;;3.80;3.33;;;30.30;54.70;;;;;;5011193;28;20038;-67
2023/08/02 08:43:34;;;;;;;4.13;3.08;;;30.30;54.00;;;;;;5011515;28;20120;-68
2023/08/02 08:46:01;;;;;;;3.03;2.83;;;30.40;53.80;;;;;;5011060;28;20080;-67
2023/08/02 08:48:28;;;;;;;5.25;3.72;;;30.30;53.60;;;;;;5011160;28;20053;-68
2023/08/02 08:51:01;;;;;;;4.88;3.65;;;30.30;54.10;;;;;;5025923;28;20042;-68
2023/08/02 08:53:32;;;;;;;3.58;2.72;;;30.30;53.70;;;;;;5015218;28;20038;-68
2023/08/02 08:56:00;;;;;;;7.65;2.88;;;30.30;53.60;;;;;;5015070;28;20041;-68
2023/08/02 08:58:26;;;;;;;9.80;3.90;;;30.30;54.40;;;;;;5015014;28;20033;-67
2023/08/02 09:00:54;;;;;;;5.13;3.20;;;30.60;55.90;;;;;;5014601;28;20026;-67
2023/08/02 09:03:21;;;;;;;4.45;3.95;;;30.80;56.00;;;;;;5015221;28;20045;-66
2023/08/02 09:05:47;;;;;;;5.50;3.30;;;30.60;54.70;;;;;;5015107;28;20084;-66
2023/08/02 09:08:13;;;;;;;4.80;3.60;;;30.70;53.60;;;;;;5014964;28;20042;-67
2023/08/02 09:10:39;;;;;;;3.80;3.47;;;30.50;53.10;;;;;;5014552;28;20048;-70
2023/08/02 09:13:06;;;;;;;5.43;3.47;;;30.50;52.80;;;;;;5014489;28;20378;-66
2023/08/02 09:15:32;;;;;;;5.43;3.83;;;30.50;53.10;;;;;;5014895;28;20081;-69
2023/08/02 09:18:07;;;;;;;4.82;3.17;;;30.40;52.90;;;;;;5014467;28;20504;-67
2023/08/02 09:20:33;;;;;;;11.93;3.50;;;30.40;52.90;;;;;;5014787;28;20049;-67
2023/08/02 09:23:24;;;;;;;4.63;3.38;;;30.40;52.70;;;;;;5014376;28;20040;-68
2023/08/02 09:25:50;;;;;;;4.05;3.25;;;30.50;52.60;;;;;;5014303;28;20065;-70
2023/08/02 09:28:16;;;;;;;4.45;3.45;;;30.40;52.70;;;;;;5029919;28;20042;-69
2023/08/02 09:30:42;;;;;;;3.72;3.33;;;30.40;52.60;;;;;;5013023;28;20033;-69
2023/08/02 09:33:09;;;;;;;3.92;3.53;;;30.40;52.10;;;;;;5014381;28;20053;-69
2023/08/02 09:35:50;;;;;;;3.72;3.03;;;30.30;52.10;;;;;;5009879;28;20026;-67
2023/08/02 09:38:16;;;;;;;4.70;2.75;;;30.30;52.80;;;;;;4994521;28;20073;-69
2023/08/02 09:40:47;;;;;;;2.50;2.22;;;30.30;51.70;;;;;;4994650;28;20045;-68
2023/08/02 09:43:15;;;;;;;3.08;2.17;;;30.20;51.00;;;;;;4994260;28;20093;-68
2023/08/02 09:45:42;;;;;;;2.97;1.85;;;30.30;50.10;;;;;;4994649;28;20042;-69
2023/08/02 09:48:08;;;;;;;3.40;2.60;;;30.20;50.10;;;;;;4994598;28;20042;-68
2023/08/02 09:50:37;;;;;;;2.95;2.75;;;30.40;50.60;;;;;;4994556;28;20462;-69
2023/08/02 09:53:15;;;;;;;2.58;2.30;;;30.40;50.60;;;;;;4989523;28;20380;-69
2023/08/02 09:55:46;;;;;;;2.53;2.33;;;30.20;50.10;;;;;;4998057;28;20034;-69
2023/08/02 09:58:13;;;;;;;4.13;1.65;;;30.10;51.10;;;;;;4989021;28;20664;-68
2023/08/02 10:00:40;;;;;;;5.40;2.70;;;30.30;51.40;;;;;;4994185;28;20121;-70
2023/08/02 10:03:07;;;;;;;7.00;2.72;;;30.10;51.60;;;;;;4990108;28;20044;-68
2023/08/02 10:05:40;;;;;;;2.90;2.60;;;30.10;50.90;;;;;;4991818;28;20038;-68
2023/08/02 10:08:06;;;;;;;3.08;2.75;;;30.10;51.30;;;;;;4991816;28;20046;-68
2023/08/02 10:10:38;;;;;;;3.33;2.80;;;29.90;50.70;;;;;;5002291;28;20117;-67
2023/08/02 10:13:20;;;;;;;7.13;2.17;;;29.90;50.70;;;;;;5010916;28;20212;-68
2023/08/02 10:15:49;;;;;;;5.07;2.05;;;30.00;51.20;;;;;;5010895;28;20033;-69
2023/08/02 10:18:17;;;;;;;3.17;2.25;;;30.00;51.80;;;;;;5010963;28;20048;-68
2023/08/02 10:20:45;;;;;;;5.25;3.00;;;29.80;50.80;;;;;;5010828;28;20049;-68
2023/08/02 10:23:11;;;;;;;3.13;2.78;;;29.90;50.60;;;;;;4994269;28;20049;-68
2023/08/02 10:25:37;;;;;;;3.05;2.30;;;29.90;50.40;;;;;;5011079;28;20037;-68
2023/08/02 10:28:04;;;;;;;3.03;2.65;;;29.90;50.20;;;;;;4996300;28;20181;-68
2023/08/02 10:30:31;;;;;;;4.07;2.63;;;29.90;50.00;;;;;;4991305;28;20113;-67
2023/08/02 10:33:20;;;;;;;2.58;2.38;;;29.80;50.00;;;;;;4990335;28;20058;-67
2023/08/02 10:36:03;;;;;;;3.30;2.40;;;29.90;49.90;;;;;;4986461;28;20038;-67
2023/08/02 10:38:47;;;;;;;3.58;2.97;;;29.90;49.80;;;;;;5012647;28;20033;-67
2023/08/02 10:41:18;;;;;;;4.40;2.85;;;29.90;52.80;;;;;;5013274;28;20084;-66
2023/08/02 10:43:53;;;;;;;3.55;2.78;;;30.10;53.90;;;;;;5012774;28;20425;-67
2023/08/02 10:46:29;;;;;;;4.97;3.15;;;30.20;53.70;;;;;;5011749;28;20076;-70
2023/08/02 10:49:08;;;;;;;2.53;2.15;;;30.10;53.10;;;;;;5028067;28;20424;-67
2023/08/02 10:51:38;;;;;;;3.30;2.70;;;29.90;51.70;;;;;;5013002;28;20108;-73
2023/08/02 10:54:21;;;;;;;3.42;2.30;;;29.90;51.20;;;;;;5012977;28;20408;-70
2023/08/02 10:56:57;;;;;;;3.58;2.65;;;30.00;52.00;;;;;;5012421;28;20037;-68
2023/08/02 10:59:23;;;;;;;3.08;2.60;;;29.90;51.10;;;;;;5012473;28;20038;-70
2023/08/02 11:02:11;;;;;;;6.72;2.75;;;29.90;50.60;;;;;;5000770;28;20034;-71
2023/08/02 11:04:44;;;;;;;2.45;2.05;;;29.70;50.80;;;;;;4992886;28;20038;-72
2023/08/02 11:07:18;;;;;;;3.38;3.08;;;29.70;53.90;;;;;;4992806;28;20031;-69
2023/08/02 11:09:45;;;;;;;5.13;2.92;;;30.10;55.10;;;;;;4992773;28;20038;-70
2023/08/02 11:12:12;;;;;;;4.97;2.90;;;30.00;57.20;;;;;;4992839;28;20089;-70
2023/08/02 11:14:40;;;;;;;3.60;2.50;;;30.20;53.20;;;;;;4992600;28;20030;-70
2023/08/02 11:17:06;;;;;;;2.35;1.90;;;30.00;52.40;;;;;;4991588;28;20038;-70
2023/08/02 11:19:34;;;;;;;2.28;1.92;;;29.90;51.00;;;;;;4992785;28;20042;-70
2023/08/02 11:22:00;;;;;;;2.63;2.42;;;29.80;51.20;;;;;;4992454;28;20034;-70
2023/08/02 11:24:26;;;;;;;4.57;3.58;;;29.90;51.10;;;;;;4992508;28;20482;-70
2023/08/02 11:26:57;;;;;;;12.57;2.70;;;29.90;53.30;;;;;;4992929;28;20557;-70
2023/08/02 11:29:23;;;;;;;4.10;2.40;;;29.80;51.60;;;;;;4992872;28;20525;-70
2023/08/02 11:31:53;;;;;;;4.80;2.75;;;29.90;51.20;;;;;;4992578;28;20398;-69
2023/08/02 11:34:20;;;;;;;2.60;2.40;;;29.90;50.80;;;;;;4992521;28;20038;-69
2023/08/02 11:36:50;;;;;;;2.67;2.30;;;29.70;50.80;;;;;;4992317;28;20026;-69
2023/08/02 11:39:17;;;;;;;2.42;2.22;;;29.80;50.90;;;;;;4992394;28;20070;-69
2023/08/02 11:41:43;;;;;;;3.00;2.25;;;29.80;50.90;;;;;;4991414;28;20038;-69
2023/08/02 11:44:17;;;;;;;2.55;2.17;;;29.70;51.00;;;;;;4992313;28;20089;-69
2023/08/02 11:46:44;;;;;;;3.50;2.50;;;29.80;51.00;;;;;;4990938;28;20050;-71
2023/08/02 11:49:10;;;;;;;3.13;2.30;;;29.80;51.10;;;;;;4992387;28;20034;-71
2023/08/02 11:51:40;;;;;;;2.85;2.60;;;29.70;51.30;;;;;;4992309;28;20126;-70
2023/08/02 11:54:08;;;;;;;2.63;2.35;;;29.70;51.40;;;;;;4992281;28;20032;-70
2023/08/02 11:56:34;;;;;;;2.58;2.38;;;29.80;51.50;;;;;;4992086;28;20026;-70
2023/08/02 11:59:01;;;;;;;4.10;2.33;;;29.90;51.60;;;;;;4991998;28;20513;-70
2023/08/02 12:01:27;;;;;;;3.28;2.20;;;29.70;51.70;;;;;;4992170;28;20541;-67
2023/08/02 12:04:05;;;;;;;3.03;2.70;;;29.80;51.80;;;;;;4991936;28;20026;-69
2023/08/02 12:06:48;;;;;;;2.10;1.95;;;29.70;51.80;;;;;;4992172;28;20035;-68
2023/08/02 12:09:14;;;;;;;2.60;2.35;;;29.80;51.90;;;;;;4992112;28;20084;-68
2023/08/02 12:11:41;;;;;;;3.17;2.47;;;29.60;52.00;;;;;;4991801;28;20070;-67
2023/08/02 12:14:07;;;;;;;3.17;2.72;;;29.60;52.00;;;;;;5022408;28;20038;-68
2023/08/02 12:16:41;;;;;;;2.08;1.88;;;29.70;52.20;;;;;;4991514;28;20034;-68
2023/08/02 12:19:08;;;;;;;2.58;2.25;;;29.70;52.20;;;;;;4991675;28;20462;-68
2023/08/02 12:21:35;;;;;;;3.38;2.70;;;29.80;52.30;;;;;;4991668;28;20537;-69
2023/08/02 12:24:16;;;;;;;2.38;2.17;;;29.60;52.30;;;;;;4991727;28;20049;-68
2023/08/02 12:26:42;;;;;;;2.60;2.30;;;29.60;52.40;;;;;;4991011;28;20034;-69
2023/08/02 12:29:08;;;;;;;2.50;2.30;;;29.60;52.50;;;;;;4991683;28;20125;-68
2023/08/02 12:31:45;;;;;;;2.85;2.25;;;29.60;52.70;;;;;;4992017;28;20037;-70
2023/08/02 12:34:11;;;;;;;2.80;2.30;;;29.50;52.70;;;;;;4991944;28;20391;-69
2023/08/02 12:36:38;;;;;;;2.22;2.00;;;29.40;52.70;;;;;;5004620;28;20046;-70
2023/08/02 12:39:04;;;;;;;2.92;2.60;;;29.40;52.20;;;;;;5011534;28;20057;-70
2023/08/02 12:41:31;;;;;;;2.00;1.90;;;29.50;51.60;;;;;;5011263;28;20065;-72
2023/08/02 12:43:57;;;;;;;2.92;1.85;;;29.50;51.60;;;;;;5011242;28;20037;-71
2023/08/02 12:46:23;;;;;;;2.35;2.10;;;29.50;51.90;;;;;;5011286;28;20030;-71
2023/08/02 12:48:50;;;;;;;3.95;2.38;;;29.40;52.10;;;;;;5011418;28;20030;-70